Time;durP1;ratioP1;P1;durP2;ratioP2;P2;SDS_P1;SDS_P2;PMS_P1;PMS_P2;Temp;Humidity;BMP_temperature;BMP_pressure;BME280_temperature;BME280_humidity;BME280_pressure;Samples;Min_cycle;Max_cycle;Signal;HPM_P1;HPM_P2
2024/04/20 00:01:37;;;;;;;2.53;0.70;;;7.90;99.90;;;;;;5347997;26;19984;-84
2024/04/20 00:04:03;;;;;;;4.00;0.80;;;8.00;99.90;;;;;;5338623;26;20410;-82
2024/04/20 00:06:29;;;;;;;2.78;0.85;;;7.90;99.90;;;;;;5352911;26;20431;-83
2024/04/20 00:08:54;;;;;;;2.17;0.65;;;7.90;99.90;;;;;;5347931;26;20002;-82
2024/04/20 00:11:20;;;;;;;1.30;0.50;;;7.90;99.90;;;;;;5351731;26;19992;-83
2024/04/20 00:13:49;;;;;;;1.60;0.93;;;7.90;99.90;;;;;;5324596;26;20008;-83
2024/04/20 00:16:15;;;;;;;1.02;0.55;;;7.80;99.90;;;;;;5383676;26;20015;-83
2024/04/20 00:18:41;;;;;;;1.15;0.55;;;7.80;99.90;;;;;;5353562;26;20448;-83
2024/04/20 00:21:07;;;;;;;1.23;0.70;;;7.80;99.90;;;;;;5353587;26;20074;-83
2024/04/20 00:23:33;;;;;;;1.58;0.80;;;7.70;99.90;;;;;;5317856;26;20024;-83
2024/04/20 00:26:06;;;;;;;0.80;0.55;;;7.70;99.90;;;;;;5353202;26;20000;-83
2024/04/20 00:28:32;;;;;;;1.05;0.60;;;7.70;99.90;;;;;;5344553;26;20047;-83
2024/04/20 00:31:02;;;;;;;2.38;0.60;;;7.70;99.90;;;;;;5348660;26;20082;-83
2024/04/20 00:33:29;;;;;;;1.25;0.50;;;7.70;99.90;;;;;;5364895;26;20000;-83
2024/04/20 00:35:55;;;;;;;1.55;0.70;;;7.70;99.90;;;;;;5353647;26;20000;-83
2024/04/20 00:38:21;;;;;;;2.38;0.70;;;7.80;99.90;;;;;;5336772;26;19993;-83
2024/04/20 00:40:57;;;;;;;1.75;0.93;;;7.80;99.90;;;;;;5347462;26;20019;-83
2024/04/20 00:43:23;;;;;;;1.80;0.90;;;7.80;99.90;;;;;;5381785;26;20068;-83
2024/04/20 00:45:52;;;;;;;0.90;0.70;;;7.80;99.90;;;;;;5352887;26;20000;-83
2024/04/20 00:48:21;;;;;;;1.00;0.90;;;7.80;99.90;;;;;;5351408;26;20011;-83
2024/04/20 00:50:52;;;;;;;1.05;0.70;;;7.80;99.90;;;;;;5383438;26;19993;-83
2024/04/20 00:53:21;;;;;;;2.92;0.60;;;7.80;99.90;;;;;;5383228;26;20011;-83
2024/04/20 00:55:50;;;;;;;1.92;0.90;;;7.70;99.90;;;;;;5289961;26;20074;-83
2024/04/20 00:58:19;;;;;;;1.48;0.52;;;7.70;99.90;;;;;;5348811;26;20441;-83
2024/04/20 01:00:45;;;;;;;2.83;0.77;;;7.70;99.90;;;;;;5381583;26;20015;-83
2024/04/20 01:03:12;;;;;;;3.40;0.98;;;7.60;99.90;;;;;;5352152;26;19992;-83
2024/04/20 01:05:38;;;;;;;1.10;0.52;;;7.60;99.90;;;;;;5382066;26;20012;-83
2024/04/20 01:08:05;;;;;;;0.73;0.35;;;7.70;99.90;;;;;;5317983;26;20009;-83
2024/04/20 01:10:30;;;;;;;1.35;0.65;;;7.60;99.90;;;;;;5344964;26;20008;-83
2024/04/20 01:13:10;;;;;;;1.55;0.80;;;7.60;99.90;;;;;;5295539;26;20007;-83
2024/04/20 01:15:36;;;;;;;1.05;0.40;;;7.60;99.90;;;;;;5324559;26;20064;-83
2024/04/20 01:18:02;;;;;;;0.85;0.55;;;7.60;99.90;;;;;;5317219;26;20016;-84
2024/04/20 01:20:31;;;;;;;1.30;0.80;;;7.50;99.90;;;;;;5318891;26;19993;-83
2024/04/20 01:23:00;;;;;;;1.35;0.40;;;7.60;99.90;;;;;;5348126;26;19999;-83
2024/04/20 01:25:27;;;;;;;1.38;0.52;;;7.60;99.90;;;;;;5362960;26;19985;-83
2024/04/20 01:27:53;;;;;;;1.38;0.50;;;7.60;99.90;;;;;;5391925;26;20021;-83
2024/04/20 01:30:18;;;;;;;0.60;0.40;;;7.60;99.90;;;;;;5368414;26;19997;-83
2024/04/20 01:32:44;;;;;;;0.82;0.50;;;7.60;99.90;;;;;;5290030;26;20356;-83
2024/04/20 01:35:10;;;;;;;2.33;0.50;;;7.50;99.90;;;;;;5345752;26;20016;-82
2024/04/20 01:37:35;;;;;;;1.90;0.50;;;7.50;99.90;;;;;;5347541;26;19997;-83
2024/04/20 01:40:01;;;;;;;1.48;0.32;;;7.50;99.90;;;;;;5289698;26;20003;-83
2024/04/20 01:42:27;;;;;;;0.80;0.43;;;7.50;99.90;;;;;;5383689;26;20422;-83
2024/04/20 01:44:53;;;;;;;2.47;0.50;;;7.60;99.90;;;;;;5380420;26;20011;-84
2024/04/20 01:47:18;;;;;;;1.33;0.45;;;7.50;99.90;;;;;;5346138;26;20005;-83
2024/04/20 01:49:44;;;;;;;1.50;0.50;;;7.60;99.90;;;;;;5341071;26;20000;-83
2024/04/20 01:52:10;;;;;;;0.63;0.38;;;7.50;99.90;;;;;;5342385;26;20008;-83
2024/04/20 01:54:35;;;;;;;0.73;0.40;;;7.50;99.90;;;;;;5352752;26;20032;-83
2024/04/20 01:57:01;;;;;;;1.02;0.50;;;7.50;99.90;;;;;;5383484;26;19997;-83
2024/04/20 01:59:26;;;;;;;3.78;0.65;;;7.50;99.90;;;;;;5315383;26;20316;-83
2024/04/20 02:01:57;;;;;;;0.88;0.50;;;7.50;99.90;;;;;;5362500;26;20012;-83
2024/04/20 02:04:22;;;;;;;2.47;0.55;;;7.40;99.90;;;;;;5324413;26;20011;-83
2024/04/20 02:06:48;;;;;;;1.17;0.60;;;7.40;99.90;;;;;;5288280;26;20456;-84
2024/04/20 02:09:14;;;;;;;1.42;0.60;;;7.50;99.90;;;;;;5317333;26;20062;-83
2024/04/20 02:11:40;;;;;;;1.50;0.55;;;7.50;99.90;;;;;;5322684;26;20011;-83
2024/04/20 02:14:07;;;;;;;1.52;0.50;;;7.50;99.90;;;;;;5294416;26;19992;-83
2024/04/20 02:16:32;;;;;;;3.05;0.80;;;7.50;99.90;;;;;;5340006;26;20000;-83
2024/04/20 02:18:58;;;;;;;1.20;0.40;;;7.60;99.90;;;;;;5383130;26;20313;-83
2024/04/20 02:21:24;;;;;;;2.38;0.63;;;7.60;99.90;;;;;;5294991;26;20008;-83
2024/04/20 02:23:49;;;;;;;1.23;0.73;;;7.60;99.90;;;;;;5322751;26;20021;-83
2024/04/20 02:26:15;;;;;;;1.30;0.77;;;7.60;99.90;;;;;;5348955;26;20238;-83
2024/04/20 02:28:41;;;;;;;1.88;0.63;;;7.70;99.90;;;;;;5318261;26;19996;-83
2024/04/20 02:31:06;;;;;;;1.77;0.52;;;7.70;99.90;;;;;;5318892;26;20012;-83
2024/04/20 02:33:32;;;;;;;2.58;0.60;;;7.80;99.90;;;;;;5288910;26;20000;-83
2024/04/20 02:35:58;;;;;;;2.38;0.50;;;7.80;99.90;;;;;;5317950;26;20011;-83
2024/04/20 02:38:23;;;;;;;1.10;0.57;;;7.80;99.90;;;;;;5373234;26;20000;-83
2024/04/20 02:40:52;;;;;;;1.73;0.90;;;7.80;99.90;;;;;;5352694;26;20000;-83
2024/04/20 02:43:19;;;;;;;2.80;0.60;;;7.70;99.90;;;;;;5382666;26;20428;-83
2024/04/20 02:45:45;;;;;;;3.10;0.60;;;7.70;99.90;;;;;;5352396;26;20008;-83
2024/04/20 02:48:11;;;;;;;0.98;0.40;;;7.70;99.90;;;;;;5310746;26;20050;-83
2024/04/20 02:50:36;;;;;;;2.13;0.55;;;7.70;99.90;;;;;;5346634;26;20007;-83
2024/04/20 02:53:02;;;;;;;1.35;0.40;;;7.70;99.90;;;;;;5374544;26;20000;-82
2024/04/20 02:55:28;;;;;;;1.85;0.57;;;7.60;99.90;;;;;;5367460;26;20010;-81
2024/04/20 02:57:54;;;;;;;2.22;0.52;;;7.70;99.90;;;;;;5352046;26;20446;-83
2024/04/20 03:00:20;;;;;;;2.80;0.60;;;7.70;99.90;;;;;;5381996;26;20375;-83
2024/04/20 03:02:46;;;;;;;1.80;0.50;;;7.70;99.90;;;;;;5351061;26;20004;-84
2024/04/20 03:05:11;;;;;;;1.65;0.50;;;7.70;99.90;;;;;;5381960;26;19992;-83
2024/04/20 03:07:37;;;;;;;1.88;0.60;;;7.70;99.90;;;;;;5351129;26;20471;-83
2024/04/20 03:10:03;;;;;;;1.60;0.40;;;7.70;99.90;;;;;;5314090;26;20075;-83
2024/04/20 03:12:28;;;;;;;1.48;0.43;;;7.60;99.90;;;;;;5315773;26;20007;-83
2024/04/20 03:14:54;;;;;;;3.20;0.88;;;7.60;99.90;;;;;;5316610;26;20004;-83
2024/04/20 03:17:20;;;;;;;2.25;0.60;;;7.50;99.90;;;;;;5346444;26;19997;-83
2024/04/20 03:19:46;;;;;;;2.40;0.80;;;7.50;99.90;;;;;;5345734;26;20435;-83
2024/04/20 03:22:11;;;;;;;1.48;0.65;;;7.50;99.90;;;;;;5350160;26;20008;-83
2024/04/20 03:24:38;;;;;;;1.85;0.75;;;7.40;99.90;;;;;;5344717;26;20466;-83
2024/04/20 03:27:05;;;;;;;4.57;0.70;;;7.40;99.90;;;;;;5348317;26;20001;-83
2024/04/20 03:29:33;;;;;;;1.58;0.60;;;7.40;99.90;;;;;;5347217;26;20019;-83
2024/04/20 03:31:59;;;;;;;1.55;0.45;;;7.40;99.90;;;;;;5351768;26;20053;-83
2024/04/20 03:34:25;;;;;;;2.42;0.68;;;7.50;99.90;;;;;;5321430;26;20327;-83
2024/04/20 03:36:50;;;;;;;2.95;1.10;;;7.50;99.90;;;;;;5293029;26;19996;-83
2024/04/20 03:39:16;;;;;;;1.80;0.80;;;7.50;99.90;;;;;;5380664;26;20512;-83
2024/04/20 03:41:45;;;;;;;2.00;0.50;;;7.60;99.90;;;;;;5292228;26;20450;-83
2024/04/20 03:44:14;;;;;;;3.13;0.63;;;7.60;99.90;;;;;;5350332;26;20000;-84
2024/04/20 03:46:40;;;;;;;2.80;0.60;;;7.50;99.90;;;;;;5322875;26;20004;-83
2024/04/20 03:49:05;;;;;;;2.65;0.80;;;7.50;99.90;;;;;;5321643;26;20454;-83
2024/04/20 03:51:32;;;;;;;1.88;0.40;;;7.40;99.90;;;;;;5315374;26;20005;-82
2024/04/20 03:54:01;;;;;;;1.17;0.50;;;7.40;99.90;;;;;;5287337;26;19997;-83
2024/04/20 03:56:28;;;;;;;2.03;0.60;;;7.40;99.90;;;;;;5338767;26;20450;-83
2024/04/20 03:58:54;;;;;;;2.03;0.77;;;7.40;99.90;;;;;;5323553;26;20016;-83
2024/04/20 04:01:20;;;;;;;1.08;0.50;;;7.40;99.90;;;;;;5352991;26;20037;-82
2024/04/20 04:03:45;;;;;;;3.42;0.80;;;7.40;99.90;;;;;;5384658;26;20000;-83
2024/04/20 04:06:11;;;;;;;4.28;0.80;;;7.40;99.90;;;;;;5353818;26;19992;-83
2024/04/20 04:08:36;;;;;;;2.58;0.63;;;7.40;99.90;;;;;;5318903;26;20011;-83
2024/04/20 04:11:02;;;;;;;4.10;0.98;;;7.40;99.90;;;;;;5319776;26;20004;-83
2024/04/20 04:13:28;;;;;;;2.92;0.88;;;7.40;99.90;;;;;;5318799;26;20000;-83
2024/04/20 04:15:53;;;;;;;4.40;1.35;;;7.40;99.90;;;;;;5377629;26;19995;-83
2024/04/20 04:18:21;;;;;;;5.03;1.17;;;7.40;99.90;;;;;;5370067;26;20012;-83
2024/04/20 04:20:47;;;;;;;4.05;1.05;;;7.40;99.90;;;;;;5346954;26;19985;-83
2024/04/20 04:23:13;;;;;;;3.13;1.17;;;7.40;99.90;;;;;;5327301;26;19997;-82
2024/04/20 04:25:38;;;;;;;7.28;1.35;;;7.40;99.90;;;;;;5321039;26;20007;-82
2024/04/20 04:28:04;;;;;;;5.88;1.23;;;7.40;99.90;;;;;;5384173;26;20028;-83
2024/04/20 04:30:32;;;;;;;6.55;1.27;;;7.40;99.90;;;;;;5353179;26;20008;-82
2024/04/20 04:32:57;;;;;;;6.63;1.63;;;7.40;99.90;;;;;;5351562;26;20000;-81
2024/04/20 04:35:26;;;;;;;2.95;0.95;;;7.40;99.90;;;;;;5323991;26;20032;-82
2024/04/20 04:37:52;;;;;;;2.38;0.68;;;7.40;99.90;;;;;;5354405;26;19996;-82
2024/04/20 04:40:18;;;;;;;3.80;1.30;;;7.40;99.90;;;;;;5383739;26;20073;-83
2024/04/20 04:42:44;;;;;;;4.80;1.00;;;7.40;99.90;;;;;;5318395;26;20008;-83
2024/04/20 04:45:09;;;;;;;4.45;1.00;;;7.40;99.90;;;;;;5317371;26;20001;-83
2024/04/20 04:47:35;;;;;;;3.15;0.85;;;7.30;99.90;;;;;;5318594;26;19997;-82
2024/04/20 04:50:02;;;;;;;5.97;1.30;;;7.30;99.90;;;;;;5318543;26;20001;-82
2024/04/20 04:52:27;;;;;;;3.25;0.93;;;7.20;99.90;;;;;;5324038;26;19992;-83
2024/04/20 04:54:53;;;;;;;2.35;0.70;;;7.20;99.90;;;;;;5348693;26;20001;-84
2024/04/20 04:57:18;;;;;;;2.92;0.93;;;7.10;99.90;;;;;;5366571;26;20001;-83
2024/04/20 04:59:44;;;;;;;2.17;0.75;;;7.00;99.90;;;;;;5383743;26;20000;-84
2024/04/20 05:02:10;;;;;;;2.08;0.63;;;7.00;99.90;;;;;;5352685;26;20004;-83
2024/04/20 05:04:36;;;;;;;2.05;0.40;;;6.90;99.90;;;;;;5383867;26;20345;-83
2024/04/20 05:07:01;;;;;;;2.95;0.70;;;6.90;99.90;;;;;;5316579;26;20011;-83
2024/04/20 05:09:27;;;;;;;2.65;0.90;;;6.90;99.90;;;;;;5318297;26;19997;-84
2024/04/20 05:11:53;;;;;;;4.53;0.90;;;6.90;99.90;;;;;;5369295;26;20004;-82
2024/04/20 05:14:19;;;;;;;3.70;1.23;;;6.80;99.90;;;;;;5383424;26;20004;-83
2024/04/20 05:16:47;;;;;;;3.58;0.88;;;6.90;99.90;;;;;;5380113;26;20015;-84
2024/04/20 05:19:13;;;;;;;3.50;0.80;;;6.90;99.90;;;;;;5352486;26;19997;-83
2024/04/20 05:21:39;;;;;;;1.67;0.68;;;6.90;99.90;;;;;;5324421;26;20000;-82
2024/04/20 05:24:05;;;;;;;2.15;0.75;;;6.80;99.90;;;;;;5323974;26;19992;-82
2024/04/20 05:26:30;;;;;;;2.92;0.90;;;6.80;99.90;;;;;;5350782;26;19996;-84
2024/04/20 05:28:56;;;;;;;3.03;0.75;;;6.90;99.90;;;;;;5300287;26;19997;-83
2024/04/20 05:31:22;;;;;;;3.63;0.73;;;6.80;99.90;;;;;;5310798;26;20005;-82
2024/04/20 05:33:47;;;;;;;3.58;0.75;;;6.90;99.90;;;;;;5345055;26;20004;-82
2024/04/20 05:36:13;;;;;;;0.75;0.40;;;7.00;99.90;;;;;;5326732;26;20416;-83
2024/04/20 05:38:39;;;;;;;2.60;0.50;;;7.00;99.90;;;;;;5357632;26;20008;-82
2024/04/20 05:41:05;;;;;;;2.85;0.75;;;7.00;99.90;;;;;;5376115;26;20014;-83
2024/04/20 05:43:31;;;;;;;2.55;0.70;;;7.00;99.90;;;;;;5376877;26;20003;-83
2024/04/20 05:45:58;;;;;;;1.67;0.60;;;6.90;99.90;;;;;;5405553;26;20000;-82
2024/04/20 05:48:24;;;;;;;2.88;0.75;;;7.00;99.90;;;;;;5326469;26;20008;-83
2024/04/20 05:50:50;;;;;;;2.55;0.80;;;7.00;99.90;;;;;;5383347;26;19996;-83
2024/04/20 05:53:16;;;;;;;3.22;0.80;;;7.00;99.90;;;;;;5352633;26;19996;-83
2024/04/20 05:55:42;;;;;;;3.47;0.75;;;6.90;99.90;;;;;;5355410;26;20050;-83
2024/04/20 05:58:07;;;;;;;3.13;0.80;;;6.90;99.90;;;;;;5295682;26;19997;-83
2024/04/20 06:00:33;;;;;;;4.75;0.80;;;6.90;99.90;;;;;;5345508;26;19996;-84
2024/04/20 06:02:58;;;;;;;2.45;0.90;;;6.90;99.90;;;;;;5352064;26;20015;-83
2024/04/20 06:05:24;;;;;;;3.05;0.80;;;6.90;99.90;;;;;;5351534;26;20065;-83
2024/04/20 06:07:50;;;;;;;4.20;0.77;;;7.00;99.90;;;;;;5382360;26;20078;-83
2024/04/20 06:10:16;;;;;;;3.45;1.10;;;7.00;99.90;;;;;;5320073;26;19996;-83
2024/04/20 06:12:41;;;;;;;3.05;0.90;;;7.10;99.90;;;;;;5351123;26;20007;-83
2024/04/20 06:15:10;;;;;;;2.85;0.80;;;7.20;99.90;;;;;;5300309;26;20001;-83
2024/04/20 06:17:36;;;;;;;2.65;0.80;;;7.20;99.90;;;;;;5322854;26;19996;-82
2024/04/20 06:20:02;;;;;;;3.20;0.68;;;7.30;99.90;;;;;;5351144;26;20423;-82
2024/04/20 06:22:27;;;;;;;2.90;1.10;;;7.30;99.90;;;;;;5350971;26;19996;-83
2024/04/20 06:24:53;;;;;;;3.22;0.90;;;7.40;99.90;;;;;;5336800;26;20032;-82
2024/04/20 06:27:23;;;;;;;2.63;0.90;;;7.40;99.90;;;;;;5381871;26;20004;-84
2024/04/20 06:29:49;;;;;;;5.13;0.95;;;7.40;99.90;;;;;;5316304;26;20007;-83
2024/04/20 06:32:51;;;;;;;3.35;1.52;;;7.40;99.90;;;;;;5345168;26;20348;-84
2024/04/20 06:35:17;;;;;;;2.47;0.70;;;7.50;99.90;;;;;;5329979;26;22126;-83
2024/04/20 06:37:43;;;;;;;4.57;0.70;;;7.60;99.90;;;;;;5285446;26;20004;-82
2024/04/20 06:40:09;;;;;;;3.03;0.73;;;7.70;99.90;;;;;;5279342;27;19998;-83
2024/04/20 06:42:37;;;;;;;2.67;0.93;;;7.70;99.90;;;;;;5307540;27;20002;-83
2024/04/20 06:45:03;;;;;;;2.35;0.63;;;7.80;99.90;;;;;;5309591;26;20012;-82
2024/04/20 06:47:33;;;;;;;5.22;0.98;;;7.80;99.90;;;;;;5325829;26;19998;-83
2024/04/20 06:49:59;;;;;;;4.57;1.20;;;7.90;99.90;;;;;;5308658;26;20067;-82
2024/04/20 06:52:24;;;;;;;2.95;0.93;;;8.00;99.90;;;;;;5308522;26;19994;-83
2024/04/20 06:54:50;;;;;;;2.53;0.77;;;8.10;99.90;;;;;;5311393;27;20009;-83
2024/04/20 06:57:16;;;;;;;4.38;1.00;;;8.20;99.90;;;;;;5286986;26;20404;-83
2024/04/20 06:59:42;;;;;;;5.78;1.25;;;8.30;99.90;;;;;;5312931;26;19997;-83
2024/04/20 07:02:08;;;;;;;4.28;1.02;;;8.40;99.90;;;;;;5313287;27;20448;-83
2024/04/20 07:04:33;;;;;;;3.33;0.98;;;8.40;99.90;;;;;;5292147;27;20016;-85
2024/04/20 07:07:01;;;;;;;3.25;0.80;;;8.40;99.90;;;;;;5335804;26;20022;-85
2024/04/20 07:09:27;;;;;;;4.03;1.00;;;8.30;99.90;;;;;;5339683;26;20010;-84
2024/04/20 07:11:53;;;;;;;3.05;0.85;;;8.30;99.90;;;;;;5331302;26;20191;-83
2024/04/20 07:14:18;;;;;;;2.22;0.63;;;8.30;99.90;;;;;;5286190;27;20005;-84
2024/04/20 07:16:45;;;;;;;1.15;0.55;;;8.20;99.90;;;;;;5283594;27;20009;-82
2024/04/20 07:19:11;;;;;;;3.83;0.80;;;8.20;99.90;;;;;;5300038;27;20041;-83
2024/04/20 07:21:38;;;;;;;3.03;0.90;;;8.20;99.90;;;;;;5339365;26;20001;-82
2024/04/20 07:24:05;;;;;;;1.80;0.60;;;8.20;99.90;;;;;;5310895;27;20425;-83
2024/04/20 07:26:31;;;;;;;2.90;0.60;;;8.20;99.90;;;;;;5310629;26;20386;-82
2024/04/20 07:28:58;;;;;;;4.10;0.70;;;8.30;99.90;;;;;;5309589;26;19997;-82
2024/04/20 07:31:24;;;;;;;2.75;0.73;;;8.30;99.90;;;;;;5310993;27;19993;-83
2024/04/20 07:33:49;;;;;;;1.77;0.40;;;8.40;99.90;;;;;;5287892;26;20004;-83
2024/04/20 07:36:15;;;;;;;2.22;0.70;;;8.50;99.90;;;;;;5291762;26;20007;-83
2024/04/20 07:38:41;;;;;;;1.70;0.70;;;8.50;99.90;;;;;;5290887;26;19997;-82
2024/04/20 07:41:06;;;;;;;1.65;0.50;;;8.60;99.90;;;;;;5318226;26;20005;-82
2024/04/20 07:43:32;;;;;;;5.05;1.20;;;8.70;99.90;;;;;;5319494;26;20446;-83
2024/04/20 07:45:58;;;;;;;3.50;1.00;;;8.70;99.90;;;;;;5319314;26;20501;-82
2024/04/20 07:48:23;;;;;;;3.83;0.80;;;8.60;99.90;;;;;;5319229;26;20007;-82
2024/04/20 07:50:49;;;;;;;6.07;0.93;;;8.60;99.90;;;;;;5356996;26;20451;-83
2024/04/20 07:53:14;;;;;;;2.60;0.90;;;8.70;99.90;;;;;;5291479;26;20324;-82
2024/04/20 07:55:40;;;;;;;4.47;1.02;;;8.70;99.90;;;;;;5319200;26;20359;-82
2024/04/20 07:58:06;;;;;;;3.83;1.08;;;8.80;99.90;;;;;;5291003;26;20017;-82
2024/04/20 08:00:32;;;;;;;3.97;0.82;;;8.80;99.90;;;;;;5296521;26;20347;-82
2024/04/20 08:02:57;;;;;;;7.47;1.33;;;8.90;99.90;;;;;;5319189;26;19994;-83
2024/04/20 08:05:23;;;;;;;3.22;0.90;;;9.00;99.90;;;;;;5319342;26;20004;-83
2024/04/20 08:07:48;;;;;;;4.55;1.33;;;9.20;99.90;;;;;;5347500;26;20047;-83
2024/04/20 08:10:14;;;;;;;3.63;1.20;;;9.30;99.90;;;;;;5318983;26;20001;-82
2024/04/20 08:12:40;;;;;;;5.40;1.30;;;9.20;99.90;;;;;;5289231;26;20444;-83
2024/04/20 08:15:06;;;;;;;7.22;1.33;;;9.30;99.90;;;;;;5344496;26;20090;-83
2024/04/20 08:17:31;;;;;;;5.32;1.20;;;9.30;99.90;;;;;;5324699;26;20007;-82
2024/04/20 08:19:57;;;;;;;4.13;1.10;;;9.30;99.90;;;;;;5324484;26;20007;-82
2024/04/20 08:22:23;;;;;;;4.63;1.50;;;9.40;99.90;;;;;;5296820;26;20000;-82
2024/04/20 08:24:48;;;;;;;4.75;1.17;;;9.30;99.90;;;;;;5290010;26;20329;-83
2024/04/20 08:27:17;;;;;;;4.15;1.10;;;9.30;99.90;;;;;;5292843;26;20008;-82
2024/04/20 08:29:43;;;;;;;4.57;1.20;;;9.20;99.90;;;;;;5299316;26;19997;-83
2024/04/20 08:32:08;;;;;;;3.38;1.10;;;9.20;99.90;;;;;;5310609;26;20000;-82
2024/04/20 08:34:34;;;;;;;4.80;1.40;;;9.10;99.90;;;;;;5347416;26;19993;-84
2024/04/20 08:37:02;;;;;;;5.38;1.38;;;9.10;99.90;;;;;;5339433;26;20009;-83
2024/04/20 08:39:28;;;;;;;4.10;1.30;;;9.00;99.90;;;;;;5313356;26;19985;-83
2024/04/20 08:42:07;;;;;;;6.32;1.45;;;9.00;99.90;;;;;;5311560;26;20001;-81
2024/04/20 08:44:34;;;;;;;5.60;1.20;;;9.10;99.90;;;;;;5330897;26;20425;-82
2024/04/20 08:47:02;;;;;;;6.30;1.48;;;9.10;99.90;;;;;;5351461;26;20033;-82
2024/04/20 08:49:32;;;;;;;4.07;1.20;;;9.10;99.90;;;;;;5319221;26;20013;-83
2024/04/20 08:51:58;;;;;;;7.30;1.33;;;9.10;99.90;;;;;;5318445;26;19997;-82
2024/04/20 08:54:24;;;;;;;6.80;1.00;;;9.10;99.90;;;;;;5318282;26;20301;-83
2024/04/20 08:56:50;;;;;;;4.80;1.20;;;9.10;99.90;;;;;;5307735;26;20460;-83
2024/04/20 08:59:16;;;;;;;5.32;1.67;;;9.00;99.90;;;;;;5290021;26;20004;-84
2024/04/20 09:01:43;;;;;;;5.90;1.40;;;8.90;99.90;;;;;;5261952;26;20514;-83
2024/04/20 09:04:10;;;;;;;7.60;1.52;;;8.80;99.90;;;;;;5317817;26;20297;-84
2024/04/20 09:06:37;;;;;;;7.07;1.70;;;8.80;99.90;;;;;;5296252;26;20519;-84
2024/04/20 09:09:04;;;;;;;6.97;1.40;;;8.80;99.90;;;;;;5318096;26;19993;-83
2024/04/20 09:11:32;;;;;;;5.45;1.33;;;8.80;99.90;;;;;;5318239;26;20007;-82
2024/04/20 09:13:58;;;;;;;7.97;1.60;;;8.90;99.90;;;;;;5317484;26;19993;-84
2024/04/20 09:16:23;;;;;;;5.40;1.13;;;8.90;99.90;;;;;;5349412;26;20337;-83
2024/04/20 09:18:52;;;;;;;5.28;0.80;;;9.00;99.90;;;;;;5316813;26;20009;-83
2024/04/20 09:21:17;;;;;;;3.25;0.88;;;8.80;99.90;;;;;;5348308;26;19997;-83
2024/04/20 09:23:43;;;;;;;2.13;0.90;;;8.80;99.90;;;;;;5289758;26;20427;-83
2024/04/20 09:26:11;;;;;;;2.83;0.77;;;8.90;99.90;;;;;;5289708;26;20424;-82
2024/04/20 09:28:38;;;;;;;2.95;0.80;;;8.90;99.90;;;;;;5316576;26;20015;-82
2024/04/20 09:31:03;;;;;;;3.05;0.70;;;8.90;99.90;;;;;;5317533;26;20001;-82
2024/04/20 09:33:30;;;;;;;2.88;0.93;;;9.00;99.90;;;;;;5348335;26;20468;-82
2024/04/20 09:35:56;;;;;;;3.58;0.98;;;9.10;99.90;;;;;;5347708;26;20009;-83
2024/04/20 09:38:22;;;;;;;5.32;1.33;;;9.20;99.90;;;;;;5316423;26;20001;-83
2024/04/20 09:40:52;;;;;;;5.25;1.40;;;9.30;99.90;;;;;;5317261;26;20347;-84
2024/04/20 09:43:23;;;;;;;4.18;1.40;;;9.40;99.90;;;;;;5317401;26;20012;-83
2024/04/20 09:45:50;;;;;;;4.07;1.20;;;9.40;99.90;;;;;;5317956;26;20001;-84
2024/04/20 09:48:24;;;;;;;5.30;1.35;;;9.40;99.90;;;;;;5351167;26;20006;-83
2024/04/20 09:51:08;;;;;;;4.07;1.13;;;9.30;99.90;;;;;;5317854;26;20012;-83
2024/04/20 09:53:35;;;;;;;3.47;0.85;;;9.20;99.90;;;;;;5318210;26;19992;-84
2024/04/20 09:56:02;;;;;;;1.98;0.88;;;9.10;99.90;;;;;;5319117;26;20009;-82
2024/04/20 09:58:30;;;;;;;2.45;0.98;;;9.10;99.90;;;;;;5327674;26;20018;-83
2024/04/20 10:00:56;;;;;;;5.80;1.30;;;9.10;99.90;;;;;;5346162;26;19992;-83
2024/04/20 10:03:22;;;;;;;4.10;1.27;;;9.20;99.90;;;;;;5375756;26;20007;-83
2024/04/20 10:05:52;;;;;;;4.78;1.40;;;9.20;99.90;;;;;;5346921;26;19996;-83
2024/04/20 10:08:19;;;;;;;3.97;0.90;;;9.30;99.90;;;;;;5367394;26;20000;-83
2024/04/20 10:10:46;;;;;;;3.17;1.15;;;9.40;99.90;;;;;;5317859;26;20055;-82
2024/04/20 10:13:14;;;;;;;3.10;1.02;;;9.60;99.90;;;;;;5350665;26;20064;-83
2024/04/20 10:15:43;;;;;;;2.33;1.00;;;9.70;99.90;;;;;;5319180;26;20005;-83
2024/04/20 10:18:09;;;;;;;5.72;1.10;;;9.70;99.90;;;;;;5350851;26;19997;-83
2024/04/20 10:20:36;;;;;;;5.07;1.75;;;9.80;99.90;;;;;;5284783;26;20095;-83
2024/04/20 10:23:13;;;;;;;4.22;1.38;;;9.80;99.90;;;;;;5317395;26;20013;-83
2024/04/20 10:25:38;;;;;;;3.60;0.77;;;9.90;99.90;;;;;;5291569;26;19993;-84
2024/04/20 10:28:05;;;;;;;4.60;1.30;;;10.00;99.90;;;;;;5288346;26;20001;-82
2024/04/20 10:30:30;;;;;;;4.03;1.17;;;10.10;99.90;;;;;;5342772;26;20001;-83
2024/04/20 10:33:07;;;;;;;5.63;1.40;;;10.20;99.90;;;;;;5317188;26;20431;-83
2024/04/20 10:35:33;;;;;;;4.70;1.10;;;10.30;99.90;;;;;;5318253;26;20000;-83
2024/04/20 10:38:03;;;;;;;4.18;1.23;;;10.30;99.90;;;;;;5328634;26;20015;-83
2024/04/20 10:40:33;;;;;;;3.65;1.25;;;10.40;99.90;;;;;;5339343;26;19996;-84
2024/04/20 10:43:19;;;;;;;5.38;1.27;;;10.50;99.90;;;;;;5349828;26;20015;-83
2024/04/20 10:45:45;;;;;;;4.88;1.40;;;10.40;99.90;;;;;;5350112;26;20347;-83
2024/04/20 10:48:15;;;;;;;5.07;1.20;;;10.30;99.90;;;;;;5321828;26;19996;-83
2024/04/20 10:50:44;;;;;;;5.20;1.20;;;10.30;99.90;;;;;;5347395;26;20086;-83
2024/04/20 10:53:22;;;;;;;2.85;1.17;;;10.30;99.90;;;;;;5351380;26;20327;-83
2024/04/20 10:55:57;;;;;;;4.75;1.08;;;10.30;99.90;;;;;;5353470;26;20194;-83
2024/04/20 10:58:24;;;;;;;3.42;1.08;;;10.40;99.90;;;;;;5350988;26;20067;-83
2024/04/20 11:00:50;;;;;;;5.95;1.27;;;10.40;99.90;;;;;;5379188;26;20011;-83
2024/04/20 11:03:16;;;;;;;3.42;1.00;;;10.50;99.90;;;;;;5293801;26;20022;-83
2024/04/20 11:05:55;;;;;;;4.43;1.10;;;10.60;99.90;;;;;;5315756;26;20001;-83
2024/04/20 11:08:23;;;;;;;5.85;1.30;;;10.60;99.90;;;;;;5349479;26;20040;-83
2024/04/20 11:11:03;;;;;;;4.35;1.17;;;10.70;99.90;;;;;;5375915;26;20000;-82
2024/04/20 11:13:32;;;;;;;4.43;1.05;;;10.80;99.90;;;;;;5337491;26;19997;-83
2024/04/20 11:15:59;;;;;;;5.57;1.40;;;10.90;99.90;;;;;;5348569;26;19993;-84
2024/04/20 11:18:27;;;;;;;5.05;1.40;;;11.00;99.90;;;;;;5319870;26;20009;-83
2024/04/20 11:20:53;;;;;;;5.03;1.48;;;11.00;99.90;;;;;;5320386;26;20032;-84
2024/04/20 11:23:19;;;;;;;3.38;1.27;;;11.00;99.90;;;;;;5290495;26;20021;-84
2024/04/20 11:25:52;;;;;;;4.53;1.33;;;11.00;99.90;;;;;;5320424;26;20421;-83
2024/04/20 11:28:18;;;;;;;5.00;1.20;;;10.90;99.90;;;;;;5321634;26;20005;-83
2024/04/20 11:30:44;;;;;;;3.72;1.00;;;10.70;99.90;;;;;;5342103;26;20032;-83
2024/04/20 11:33:12;;;;;;;5.22;1.67;;;10.70;99.90;;;;;;5351930;26;20005;-84
2024/04/20 11:35:39;;;;;;;2.72;1.02;;;10.70;99.90;;;;;;5393593;26;20024;-83
2024/04/20 11:38:06;;;;;;;6.45;1.35;;;10.60;99.90;;;;;;5396689;26;20003;-75
2024/04/20 11:40:32;;;;;;;3.97;1.27;;;10.40;99.90;;;;;;5377979;26;20009;-83
2024/04/20 11:43:04;;;;;;;5.72;1.25;;;10.40;99.90;;;;;;5330978;26;20038;-83
2024/04/20 11:45:30;;;;;;;3.63;1.20;;;10.30;99.90;;;;;;5353596;26;20002;-84
2024/04/20 11:47:56;;;;;;;4.55;1.55;;;10.30;99.90;;;;;;5324848;26;20004;-82
2024/04/20 11:50:22;;;;;;;5.15;1.20;;;10.30;99.90;;;;;;5353863;26;19988;-83
2024/04/20 11:55:41;;;;;;;;;;;10.50;99.90;;;;;;5350645;26;20442;-82
2024/04/20 11:58:11;;;;;;;3.03;0.80;;;10.50;99.90;;;;;;5349418;26;19969;-83
2024/04/20 12:00:39;;;;;;;3.13;0.80;;;10.60;99.90;;;;;;5319078;26;20043;-83
2024/04/20 12:03:05;;;;;;;5.93;1.30;;;10.80;99.90;;;;;;5318795;26;19997;-82
2024/04/20 12:05:31;;;;;;;4.35;1.20;;;10.80;99.90;;;;;;5317124;26;20016;-82
2024/04/20 12:07:57;;;;;;;3.90;1.00;;;11.00;99.90;;;;;;5318487;26;19997;-81
2024/04/20 12:10:22;;;;;;;2.17;0.90;;;11.10;99.90;;;;;;5289946;26;20000;-82
2024/04/20 12:12:49;;;;;;;2.85;1.00;;;11.10;99.90;;;;;;5319069;26;20478;-82
2024/04/20 12:15:14;;;;;;;2.70;1.17;;;11.20;99.90;;;;;;5331576;26;20001;-82
2024/04/20 12:17:40;;;;;;;3.42;0.80;;;11.30;99.90;;;;;;5261754;26;20364;-82
2024/04/20 12:20:10;;;;;;;3.58;1.35;;;11.40;99.90;;;;;;5317505;26;20012;-82
2024/04/20 12:22:36;;;;;;;5.15;1.40;;;11.60;99.90;;;;;;5318989;26;19997;-82
2024/04/20 12:25:02;;;;;;;4.03;1.42;;;11.70;99.90;;;;;;5352796;26;19997;-82
2024/04/20 12:27:28;;;;;;;4.10;1.30;;;11.90;99.90;;;;;;5349816;26;20016;-82
2024/04/20 12:29:53;;;;;;;3.58;1.23;;;12.00;99.90;;;;;;5262004;26;19996;-82
2024/04/20 12:32:19;;;;;;;3.30;1.08;;;12.00;99.90;;;;;;5318199;26;20033;-83
2024/04/20 12:34:46;;;;;;;5.78;1.33;;;12.10;99.90;;;;;;5318487;26;20320;-82
2024/04/20 12:37:11;;;;;;;5.90;1.55;;;12.10;99.90;;;;;;5324439;26;20001;-82
2024/04/20 12:39:37;;;;;;;3.90;1.38;;;12.20;99.90;;;;;;5346873;26;19996;-83
2024/04/20 12:42:03;;;;;;;5.00;1.42;;;12.10;99.90;;;;;;5290237;26;20330;-82
2024/04/20 12:44:32;;;;;;;3.50;1.05;;;11.80;99.90;;;;;;5323955;26;20324;-81
2024/04/20 12:46:58;;;;;;;4.28;1.25;;;11.60;99.90;;;;;;5291629;26;19997;-82
2024/04/20 12:49:23;;;;;;;3.47;1.10;;;11.40;99.90;;;;;;5298725;26;20004;-82
2024/04/20 12:51:49;;;;;;;4.13;0.90;;;11.30;99.90;;;;;;5288991;26;19997;-83
2024/04/20 12:54:15;;;;;;;3.85;1.00;;;11.20;99.90;;;;;;5346018;26;20007;-82
2024/04/20 12:56:40;;;;;;;2.30;0.90;;;11.10;99.90;;;;;;5318752;26;19997;-82